TimeEST,TemperatureF,Dew PointF,Humidity,Sea Level PressureIn,VisibilityMPH,Wind Direction,Wind SpeedMPH,Gust SpeedMPH,PrecipitationIn,Events,Conditions,WindDirDegrees,DateUTC
12:53 AM,35.1,28.9,78,30.09,10.0,NNW,6.9,-,N/A,,Overcast,330,2011-11-28 05:53:00
1:53 AM,35.1,28.0,76,30.09,10.0,NNW,12.7,-,N/A,,Overcast,340,2011-11-28 06:53:00
2:53 AM,34.0,27.0,75,30.12,10.0,NNW,10.4,-,N/A,,Overcast,340,2011-11-28 07:53:00
3:53 AM,34.0,27.0,75,30.14,10.0,North,10.4,-,N/A,,Overcast,350,2011-11-28 08:53:00
4:53 AM,33.1,27.0,78,30.15,10.0,NNE,8.1,-,N/A,,Overcast,30,2011-11-28 09:53:00
5:53 AM,33.1,27.0,78,30.16,10.0,NE,8.1,-,N/A,,Overcast,40,2011-11-28 10:53:00
6:53 AM,33.1,27.0,78,30.17,10.0,North,5.8,-,N/A,,Overcast,360,2011-11-28 11:53:00
7:53 AM,33.1,27.0,78,30.18,10.0,North,5.8,-,N/A,,Overcast,360,2011-11-28 12:53:00
8:53 AM,33.1,27.0,78,30.18,10.0,North,6.9,-,N/A,,Overcast,360,2011-11-28 13:53:00
9:53 AM,34.0,28.0,79,30.19,10.0,North,5.8,-,N/A,,Overcast,350,2011-11-28 14:53:00
10:53 AM,35.1,28.0,76,30.17,10.0,NNE,6.9,-,N/A,,Overcast,20,2011-11-28 15:53:00
11:53 AM,35.1,28.0,76,30.15,10.0,East,4.6,-,N/A,,Overcast,90,2011-11-28 16:53:00
12:53 PM,35.1,28.9,78,30.15,10.0,East,5.8,-,N/A,,Overcast,100,2011-11-28 17:53:00
1:53 PM,36.0,28.9,76,30.13,10.0,NE,5.8,-,N/A,,Overcast,50,2011-11-28 18:53:00
2:53 PM,36.0,28.9,76,30.11,10.0,NE,3.5,-,N/A,,Overcast,50,2011-11-28 19:53:00
3:53 PM,36.0,28.9,76,30.11,10.0,NE,5.8,-,N/A,,Overcast,50,2011-11-28 20:53:00
4:53 PM,36.0,28.9,76,30.11,10.0,NE,6.9,-,N/A,,Overcast,50,2011-11-28 21:53:00
5:53 PM,35.1,30.0,82,30.11,10.0,NNE,8.1,-,N/A,,Overcast,30,2011-11-28 22:53:00
6:53 PM,35.6,30.2,81,30.07,10.0,NNE,6.9,-,N/A,,Overcast,20,2011-11-28 23:53:00
7:53 PM,35.1,30.0,82,30.07,10.0,North,8.1,-,N/A,,Overcast,360,2011-11-29 00:53:00
8:20 PM,35.6,30.2,81,30.05,10.0,NNE,8.1,-,N/A,,Overcast,20,2011-11-29 01:20:00
8:53 PM,35.1,30.0,82,30.06,10.0,NNE,6.9,-,N/A,,Overcast,20,2011-11-29 01:53:00
9:53 PM,35.1,30.0,82,30.03,10.0,North,8.1,-,N/A,,Overcast,10,2011-11-29 02:53:00
10:53 PM,35.1,30.0,82,30.05,10.0,NNW,10.4,-,N/A,,Overcast,340,2011-11-29 03:53:00
11:53 PM,34.0,28.9,82,30.04,10.0,North,9.2,-,N/A,,Overcast,350,2011-11-29 04:53:00